sensor_id;sensor_type;location;lat;lon;timestamp;P1;durP1;ratioP1;P2;durP2;ratioP2
2177;SDS011;1095;50.992;6.798;2023-06-14T00:00:45;17.45;;;9.63;;
2177;SDS011;1095;50.992;6.798;2023-06-14T00:03:13;13.10;;;9.18;;
2177;SDS011;1095;50.992;6.798;2023-06-14T00:05:43;13.93;;;9.57;;
2177;SDS011;1095;50.992;6.798;2023-06-14T00:08:11;13.10;;;9.20;;
2177;SDS011;1095;50.992;6.798;2023-06-14T00:10:38;12.23;;;9.02;;
2177;SDS011;1095;50.992;6.798;2023-06-14T00:13:06;12.18;;;9.82;;
2177;SDS011;1095;50.992;6.798;2023-06-14T00:15:33;15.15;;;9.40;;
2177;SDS011;1095;50.992;6.798;2023-06-14T00:18:02;12.68;;;9.50;;
2177;SDS011;1095;50.992;6.798;2023-06-14T00:20:30;12.73;;;9.57;;
2177;SDS011;1095;50.992;6.798;2023-06-14T00:22:57;10.70;;;9.25;;
2177;SDS011;1095;50.992;6.798;2023-06-14T00:25:25;10.45;;;8.90;;
2177;SDS011;1095;50.992;6.798;2023-06-14T00:27:52;13.60;;;9.32;;
2177;SDS011;1095;50.992;6.798;2023-06-14T00:30:18;11.30;;;9.70;;
2177;SDS011;1095;50.992;6.798;2023-06-14T00:32:45;14.35;;;9.38;;
2177;SDS011;1095;50.992;6.798;2023-06-14T00:35:14;12.55;;;9.48;;
2177;SDS011;1095;50.992;6.798;2023-06-14T00:37:41;10.80;;;9.50;;
2177;SDS011;1095;50.992;6.798;2023-06-14T00:40:07;17.88;;;10.10;;
2177;SDS011;1095;50.992;6.798;2023-06-14T00:42:34;12.93;;;9.90;;
2177;SDS011;1095;50.992;6.798;2023-06-14T00:45:01;12.07;;;9.52;;
2177;SDS011;1095;50.992;6.798;2023-06-14T00:47:28;13.32;;;9.45;;
2177;SDS011;1095;50.992;6.798;2023-06-14T00:49:55;10.82;;;9.63;;
2177;SDS011;1095;50.992;6.798;2023-06-14T00:52:24;11.85;;;9.50;;
2177;SDS011;1095;50.992;6.798;2023-06-14T00:54:50;10.18;;;9.18;;
2177;SDS011;1095;50.992;6.798;2023-06-14T00:57:17;17.13;;;9.45;;
2177;SDS011;1095;50.992;6.798;2023-06-14T00:59:47;13.13;;;9.73;;
2177;SDS011;1095;50.992;6.798;2023-06-14T01:02:14;11.05;;;9.25;;
2177;SDS011;1095;50.992;6.798;2023-06-14T01:04:42;14.98;;;9.95;;
2177;SDS011;1095;50.992;6.798;2023-06-14T01:07:15;11.95;;;9.70;;
2177;SDS011;1095;50.992;6.798;2023-06-14T01:09:54;13.27;;;10.13;;
2177;SDS011;1095;50.992;6.798;2023-06-14T01:12:35;12.80;;;9.88;;
2177;SDS011;1095;50.992;6.798;2023-06-14T01:15:10;13.38;;;9.50;;
2177;SDS011;1095;50.992;6.798;2023-06-14T01:17:39;13.10;;;9.70;;
2177;SDS011;1095;50.992;6.798;2023-06-14T01:20:10;11.98;;;9.32;;
2177;SDS011;1095;50.992;6.798;2023-06-14T01:22:47;12.35;;;9.65;;
2177;SDS011;1095;50.992;6.798;2023-06-14T01:25:17;11.85;;;9.80;;
2177;SDS011;1095;50.992;6.798;2023-06-14T01:27:45;12.35;;;9.23;;
2177;SDS011;1095;50.992;6.798;2023-06-14T01:30:14;13.82;;;10.02;;
2177;SDS011;1095;50.992;6.798;2023-06-14T01:32:41;11.50;;;9.35;;
2177;SDS011;1095;50.992;6.798;2023-06-14T01:35:08;12.43;;;9.25;;
2177;SDS011;1095;50.992;6.798;2023-06-14T01:37:35;11.77;;;9.50;;
2177;SDS011;1095;50.992;6.798;2023-06-14T01:40:04;11.65;;;9.50;;
2177;SDS011;1095;50.992;6.798;2023-06-14T01:42:33;13.48;;;9.52;;
2177;SDS011;1095;50.992;6.798;2023-06-14T01:45:03;13.52;;;10.13;;
2177;SDS011;1095;50.992;6.798;2023-06-14T01:47:31;12.23;;;9.63;;
2177;SDS011;1095;50.992;6.798;2023-06-14T01:50:00;12.18;;;10.25;;
2177;SDS011;1095;50.992;6.798;2023-06-14T01:52:26;12.43;;;9.88;;
2177;SDS011;1095;50.992;6.798;2023-06-14T01:54:53;14.05;;;9.57;;
2177;SDS011;1095;50.992;6.798;2023-06-14T01:57:21;12.27;;;10.20;;
2177;SDS011;1095;50.992;6.798;2023-06-14T01:59:48;13.50;;;9.98;;
2177;SDS011;1095;50.992;6.798;2023-06-14T02:02:15;12.70;;;9.98;;
2177;SDS011;1095;50.992;6.798;2023-06-14T02:04:42;13.40;;;9.95;;
2177;SDS011;1095;50.992;6.798;2023-06-14T02:07:09;11.15;;;10.05;;
2177;SDS011;1095;50.992;6.798;2023-06-14T02:09:35;11.98;;;9.85;;
2177;SDS011;1095;50.992;6.798;2023-06-14T02:12:02;13.02;;;9.45;;
2177;SDS011;1095;50.992;6.798;2023-06-14T02:14:30;14.77;;;9.77;;
2177;SDS011;1095;50.992;6.798;2023-06-14T02:16:57;11.93;;;9.90;;
2177;SDS011;1095;50.992;6.798;2023-06-14T02:19:26;12.63;;;9.55;;
2177;SDS011;1095;50.992;6.798;2023-06-14T02:21:53;11.50;;;9.70;;
2177;SDS011;1095;50.992;6.798;2023-06-14T02:24:20;10.50;;;9.10;;
2177;SDS011;1095;50.992;6.798;2023-06-14T02:26:46;16.15;;;10.35;;
2177;SDS011;1095;50.992;6.798;2023-06-14T02:29:13;11.32;;;10.00;;
2177;SDS011;1095;50.992;6.798;2023-06-14T02:31:41;13.05;;;9.63;;
2177;SDS011;1095;50.992;6.798;2023-06-14T02:34:08;13.57;;;10.70;;
2177;SDS011;1095;50.992;6.798;2023-06-14T02:36:35;11.90;;;10.38;;
2177;SDS011;1095;50.992;6.798;2023-06-14T02:39:06;13.45;;;10.20;;
2177;SDS011;1095;50.992;6.798;2023-06-14T02:41:34;15.48;;;10.32;;
2177;SDS011;1095;50.992;6.798;2023-06-14T02:44:01;11.93;;;10.73;;
2177;SDS011;1095;50.992;6.798;2023-06-14T02:46:27;11.35;;;9.93;;
2177;SDS011;1095;50.992;6.798;2023-06-14T02:48:55;13.48;;;9.77;;
2177;SDS011;1095;50.992;6.798;2023-06-14T02:51:22;12.57;;;10.35;;
2177;SDS011;1095;50.992;6.798;2023-06-14T02:53:49;14.80;;;10.10;;
2177;SDS011;1095;50.992;6.798;2023-06-14T02:56:16;13.00;;;10.45;;
2177;SDS011;1095;50.992;6.798;2023-06-14T02:58:44;12.23;;;10.20;;
2177;SDS011;1095;50.992;6.798;2023-06-14T03:01:11;15.50;;;10.55;;
2177;SDS011;1095;50.992;6.798;2023-06-14T03:03:39;18.20;;;10.77;;
2177;SDS011;1095;50.992;6.798;2023-06-14T03:06:07;13.40;;;10.57;;
2177;SDS011;1095;50.992;6.798;2023-06-14T03:08:34;17.50;;;10.73;;
2177;SDS011;1095;50.992;6.798;2023-06-14T03:11:03;13.82;;;11.45;;
2177;SDS011;1095;50.992;6.798;2023-06-14T03:13:31;12.27;;;10.40;;
2177;SDS011;1095;50.992;6.798;2023-06-14T03:15:58;15.75;;;10.63;;
2177;SDS011;1095;50.992;6.798;2023-06-14T03:18:27;11.88;;;10.20;;
2177;SDS011;1095;50.992;6.798;2023-06-14T03:20:55;15.15;;;10.38;;
2177;SDS011;1095;50.992;6.798;2023-06-14T03:23:24;13.43;;;10.75;;
2177;SDS011;1095;50.992;6.798;2023-06-14T03:25:52;14.43;;;11.20;;
2177;SDS011;1095;50.992;6.798;2023-06-14T03:28:18;12.88;;;10.27;;
2177;SDS011;1095;50.992;6.798;2023-06-14T03:30:45;12.38;;;10.30;;
2177;SDS011;1095;50.992;6.798;2023-06-14T03:33:12;15.88;;;11.10;;
2177;SDS011;1095;50.992;6.798;2023-06-14T03:35:38;13.25;;;10.55;;
2177;SDS011;1095;50.992;6.798;2023-06-14T03:38:05;14.73;;;10.60;;
2177;SDS011;1095;50.992;6.798;2023-06-14T03:40:33;13.30;;;10.48;;
2177;SDS011;1095;50.992;6.798;2023-06-14T03:43:00;15.32;;;10.68;;
2177;SDS011;1095;50.992;6.798;2023-06-14T03:45:26;14.13;;;10.40;;
2177;SDS011;1095;50.992;6.798;2023-06-14T03:47:53;12.93;;;10.68;;
2177;SDS011;1095;50.992;6.798;2023-06-14T03:50:19;23.70;;;11.80;;
2177;SDS011;1095;50.992;6.798;2023-06-14T03:52:47;14.10;;;11.43;;
2177;SDS011;1095;50.992;6.798;2023-06-14T03:55:14;14.68;;;11.20;;
2177;SDS011;1095;50.992;6.798;2023-06-14T03:57:42;14.02;;;10.93;;
2177;SDS011;1095;50.992;6.798;2023-06-14T04:00:09;12.18;;;10.50;;
2177;SDS011;1095;50.992;6.798;2023-06-14T04:02:37;14.27;;;11.00;;
2177;SDS011;1095;50.992;6.798;2023-06-14T04:05:04;16.65;;;10.93;;
2177;SDS011;1095;50.992;6.798;2023-06-14T04:07:33;16.13;;;10.88;;
2177;SDS011;1095;50.992;6.798;2023-06-14T04:10:05;17.50;;;10.68;;
2177;SDS011;1095;50.992;6.798;2023-06-14T04:12:32;14.75;;;10.80;;
2177;SDS011;1095;50.992;6.798;2023-06-14T04:15:00;11.80;;;9.80;;
2177;SDS011;1095;50.992;6.798;2023-06-14T04:17:27;13.27;;;10.10;;
2177;SDS011;1095;50.992;6.798;2023-06-14T04:19:54;14.23;;;10.07;;
2177;SDS011;1095;50.992;6.798;2023-06-14T04:22:23;13.82;;;9.85;;
2177;SDS011;1095;50.992;6.798;2023-06-14T04:24:53;17.17;;;9.15;;
2177;SDS011;1095;50.992;6.798;2023-06-14T04:27:20;10.23;;;9.10;;
2177;SDS011;1095;50.992;6.798;2023-06-14T04:29:50;11.23;;;8.98;;
2177;SDS011;1095;50.992;6.798;2023-06-14T04:32:23;12.43;;;9.83;;
2177;SDS011;1095;50.992;6.798;2023-06-14T04:34:51;12.70;;;10.68;;
2177;SDS011;1095;50.992;6.798;2023-06-14T04:37:19;10.70;;;9.48;;
2177;SDS011;1095;50.992;6.798;2023-06-14T04:39:46;12.05;;;9.95;;
2177;SDS011;1095;50.992;6.798;2023-06-14T04:42:12;14.23;;;10.68;;
2177;SDS011;1095;50.992;6.798;2023-06-14T04:44:39;14.27;;;9.63;;
2177;SDS011;1095;50.992;6.798;2023-06-14T04:47:08;14.25;;;9.48;;
2177;SDS011;1095;50.992;6.798;2023-06-14T04:49:38;12.48;;;10.18;;
2177;SDS011;1095;50.992;6.798;2023-06-14T04:52:06;13.95;;;10.15;;
2177;SDS011;1095;50.992;6.798;2023-06-14T04:54:35;14.40;;;10.27;;
2177;SDS011;1095;50.992;6.798;2023-06-14T04:57:02;12.18;;;10.27;;
2177;SDS011;1095;50.992;6.798;2023-06-14T04:59:29;12.10;;;9.55;;
2177;SDS011;1095;50.992;6.798;2023-06-14T05:01:58;11.75;;;10.63;;
2177;SDS011;1095;50.992;6.798;2023-06-14T05:04:25;11.40;;;10.15;;
2177;SDS011;1095;50.992;6.798;2023-06-14T05:06:54;13.38;;;9.50;;
2177;SDS011;1095;50.992;6.798;2023-06-14T05:09:21;14.82;;;9.70;;
2177;SDS011;1095;50.992;6.798;2023-06-14T05:11:48;12.45;;;9.57;;
2177;SDS011;1095;50.992;6.798;2023-06-14T05:14:15;11.95;;;9.23;;
2177;SDS011;1095;50.992;6.798;2023-06-14T05:16:42;11.55;;;8.77;;
2177;SDS011;1095;50.992;6.798;2023-06-14T05:19:09;13.10;;;9.32;;
2177;SDS011;1095;50.992;6.798;2023-06-14T05:21:36;12.15;;;9.55;;
2177;SDS011;1095;50.992;6.798;2023-06-14T05:24:04;11.85;;;8.88;;
2177;SDS011;1095;50.992;6.798;2023-06-14T05:26:31;15.20;;;8.60;;
2177;SDS011;1095;50.992;6.798;2023-06-14T05:29:01;12.07;;;9.40;;
2177;SDS011;1095;50.992;6.798;2023-06-14T05:31:32;11.07;;;8.90;;
2177;SDS011;1095;50.992;6.798;2023-06-14T05:34:00;12.32;;;8.80;;
2177;SDS011;1095;50.992;6.798;2023-06-14T05:36:55;15.75;;;8.40;;
2177;SDS011;1095;50.992;6.798;2023-06-14T05:39:55;10.80;;;8.27;;
2177;SDS011;1095;50.992;6.798;2023-06-14T05:42:32;9.82;;;7.60;;
2177;SDS011;1095;50.992;6.798;2023-06-14T05:45:06;9.52;;;7.13;;
2177;SDS011;1095;50.992;6.798;2023-06-14T05:47:33;8.43;;;7.00;;
2177;SDS011;1095;50.992;6.798;2023-06-14T05:50:00;9.45;;;7.55;;
2177;SDS011;1095;50.992;6.798;2023-06-14T05:52:26;10.48;;;7.65;;
2177;SDS011;1095;50.992;6.798;2023-06-14T05:54:55;10.82;;;7.75;;
2177;SDS011;1095;50.992;6.798;2023-06-14T05:57:22;11.82;;;7.47;;
2177;SDS011;1095;50.992;6.798;2023-06-14T05:59:49;9.57;;;6.80;;
2177;SDS011;1095;50.992;6.798;2023-06-14T06:02:16;8.65;;;6.55;;
2177;SDS011;1095;50.992;6.798;2023-06-14T06:04:42;12.02;;;6.65;;
2177;SDS011;1095;50.992;6.798;2023-06-14T06:07:09;11.05;;;6.70;;
2177;SDS011;1095;50.992;6.798;2023-06-14T06:09:36;10.45;;;6.00;;
2177;SDS011;1095;50.992;6.798;2023-06-14T06:12:05;7.18;;;5.85;;
2177;SDS011;1095;50.992;6.798;2023-06-14T06:14:33;11.90;;;6.53;;
2177;SDS011;1095;50.992;6.798;2023-06-14T06:16:59;15.95;;;6.13;;
2177;SDS011;1095;50.992;6.798;2023-06-14T06:19:26;7.35;;;5.70;;
2177;SDS011;1095;50.992;6.798;2023-06-14T06:21:53;11.25;;;6.00;;
2177;SDS011;1095;50.992;6.798;2023-06-14T06:24:19;8.73;;;6.18;;
2177;SDS011;1095;50.992;6.798;2023-06-14T06:26:46;9.55;;;5.78;;
2177;SDS011;1095;50.992;6.798;2023-06-14T06:29:14;11.50;;;6.40;;
2177;SDS011;1095;50.992;6.798;2023-06-14T06:31:41;10.65;;;7.28;;
2177;SDS011;1095;50.992;6.798;2023-06-14T06:34:07;12.25;;;6.18;;
2177;SDS011;1095;50.992;6.798;2023-06-14T06:36:34;7.57;;;5.97;;
2177;SDS011;1095;50.992;6.798;2023-06-14T06:39:00;11.73;;;5.75;;
2177;SDS011;1095;50.992;6.798;2023-06-14T06:41:34;13.88;;;6.35;;
2177;SDS011;1095;50.992;6.798;2023-06-14T06:44:02;12.48;;;5.85;;
2177;SDS011;1095;50.992;6.798;2023-06-14T06:46:30;8.30;;;5.85;;
2177;SDS011;1095;50.992;6.798;2023-06-14T06:49:05;7.47;;;5.82;;
2177;SDS011;1095;50.992;6.798;2023-06-14T06:51:31;8.88;;;6.13;;
2177;SDS011;1095;50.992;6.798;2023-06-14T06:53:58;7.82;;;5.53;;
2177;SDS011;1095;50.992;6.798;2023-06-14T06:56:25;8.82;;;5.40;;
2177;SDS011;1095;50.992;6.798;2023-06-14T06:58:51;6.60;;;5.20;;
2177;SDS011;1095;50.992;6.798;2023-06-14T07:01:18;11.55;;;6.18;;
2177;SDS011;1095;50.992;6.798;2023-06-14T07:03:50;7.70;;;5.40;;
2177;SDS011;1095;50.992;6.798;2023-06-14T07:06:17;8.32;;;5.63;;
2177;SDS011;1095;50.992;6.798;2023-06-14T07:08:44;6.97;;;5.40;;
2177;SDS011;1095;50.992;6.798;2023-06-14T07:11:13;8.55;;;5.57;;
2177;SDS011;1095;50.992;6.798;2023-06-14T07:13:43;11.65;;;5.45;;
2177;SDS011;1095;50.992;6.798;2023-06-14T07:16:10;8.73;;;5.45;;
2177;SDS011;1095;50.992;6.798;2023-06-14T07:18:37;8.10;;;5.38;;
2177;SDS011;1095;50.992;6.798;2023-06-14T07:21:05;6.28;;;5.07;;
2177;SDS011;1095;50.992;6.798;2023-06-14T07:23:31;8.18;;;5.22;;
2177;SDS011;1095;50.992;6.798;2023-06-14T07:25:58;6.88;;;4.80;;
2177;SDS011;1095;50.992;6.798;2023-06-14T07:28:24;11.73;;;5.40;;
2177;SDS011;1095;50.992;6.798;2023-06-14T07:30:51;8.70;;;5.10;;
2177;SDS011;1095;50.992;6.798;2023-06-14T07:33:18;8.02;;;5.22;;
2177;SDS011;1095;50.992;6.798;2023-06-14T07:35:56;7.38;;;5.00;;
2177;SDS011;1095;50.992;6.798;2023-06-14T07:38:24;13.32;;;5.10;;
2177;SDS011;1095;50.992;6.798;2023-06-14T07:40:50;7.13;;;4.95;;
2177;SDS011;1095;50.992;6.798;2023-06-14T07:43:17;6.95;;;4.80;;
2177;SDS011;1095;50.992;6.798;2023-06-14T07:45:44;8.43;;;4.95;;
2177;SDS011;1095;50.992;6.798;2023-06-14T07:48:11;6.93;;;5.03;;
2177;SDS011;1095;50.992;6.798;2023-06-14T07:50:40;12.00;;;4.80;;
2177;SDS011;1095;50.992;6.798;2023-06-14T07:53:08;6.97;;;4.85;;
2177;SDS011;1095;50.992;6.798;2023-06-14T07:55:36;7.95;;;4.50;;
2177;SDS011;1095;50.992;6.798;2023-06-14T07:58:03;7.55;;;5.05;;
2177;SDS011;1095;50.992;6.798;2023-06-14T08:00:31;10.30;;;5.35;;
2177;SDS011;1095;50.992;6.798;2023-06-14T08:02:57;11.20;;;4.88;;
2177;SDS011;1095;50.992;6.798;2023-06-14T08:05:24;4.88;;;3.78;;
2177;SDS011;1095;50.992;6.798;2023-06-14T08:07:52;8.68;;;4.63;;
2177;SDS011;1095;50.992;6.798;2023-06-14T08:10:18;7.93;;;5.03;;
2177;SDS011;1095;50.992;6.798;2023-06-14T08:12:47;4.55;;;4.00;;
2177;SDS011;1095;50.992;6.798;2023-06-14T08:15:15;4.75;;;3.55;;
2177;SDS011;1095;50.992;6.798;2023-06-14T08:17:42;5.25;;;3.63;;
2177;SDS011;1095;50.992;6.798;2023-06-14T08:20:10;7.60;;;3.70;;
2177;SDS011;1095;50.992;6.798;2023-06-14T08:22:38;5.07;;;3.72;;
2177;SDS011;1095;50.992;6.798;2023-06-14T08:25:07;5.03;;;3.67;;
2177;SDS011;1095;50.992;6.798;2023-06-14T08:27:34;8.85;;;3.88;;
2177;SDS011;1095;50.992;6.798;2023-06-14T08:30:03;6.32;;;3.58;;
2177;SDS011;1095;50.992;6.798;2023-06-14T08:32:30;5.95;;;3.38;;
2177;SDS011;1095;50.992;6.798;2023-06-14T08:34:56;6.82;;;3.47;;
2177;SDS011;1095;50.992;6.798;2023-06-14T08:37:25;6.43;;;3.63;;
2177;SDS011;1095;50.992;6.798;2023-06-14T08:39:52;7.18;;;3.60;;
2177;SDS011;1095;50.992;6.798;2023-06-14T08:42:18;6.22;;;4.07;;
2177;SDS011;1095;50.992;6.798;2023-06-14T08:44:47;4.78;;;3.40;;
2177;SDS011;1095;50.992;6.798;2023-06-14T08:47:24;4.60;;;3.60;;
2177;SDS011;1095;50.992;6.798;2023-06-14T08:49:54;4.88;;;3.72;;
2177;SDS011;1095;50.992;6.798;2023-06-14T08:52:22;5.32;;;4.00;;
2177;SDS011;1095;50.992;6.798;2023-06-14T08:54:58;5.20;;;3.63;;
2177;SDS011;1095;50.992;6.798;2023-06-14T08:57:27;6.65;;;3.90;;
2177;SDS011;1095;50.992;6.798;2023-06-14T08:59:56;5.22;;;4.07;;
2177;SDS011;1095;50.992;6.798;2023-06-14T09:02:31;3.92;;;3.53;;
2177;SDS011;1095;50.992;6.798;2023-06-14T09:05:00;6.15;;;3.72;;
2177;SDS011;1095;50.992;6.798;2023-06-14T09:07:29;5.13;;;3.40;;
2177;SDS011;1095;50.992;6.798;2023-06-14T09:10:06;7.50;;;3.80;;
2177;SDS011;1095;50.992;6.798;2023-06-14T09:12:35;5.50;;;3.28;;
2177;SDS011;1095;50.992;6.798;2023-06-14T09:15:01;3.47;;;3.17;;
2177;SDS011;1095;50.992;6.798;2023-06-14T09:17:33;5.43;;;3.40;;
2177;SDS011;1095;50.992;6.798;2023-06-14T09:20:00;4.07;;;3.65;;
2177;SDS011;1095;50.992;6.798;2023-06-14T09:22:30;5.38;;;3.60;;
2177;SDS011;1095;50.992;6.798;2023-06-14T09:24:57;7.07;;;3.80;;
2177;SDS011;1095;50.992;6.798;2023-06-14T09:27:27;4.55;;;3.53;;
2177;SDS011;1095;50.992;6.798;2023-06-14T09:29:55;4.20;;;3.58;;
2177;SDS011;1095;50.992;6.798;2023-06-14T09:32:21;8.05;;;3.90;;
2177;SDS011;1095;50.992;6.798;2023-06-14T09:34:49;6.82;;;3.95;;
2177;SDS011;1095;50.992;6.798;2023-06-14T09:37:26;5.07;;;3.65;;
2177;SDS011;1095;50.992;6.798;2023-06-14T09:39:56;5.20;;;3.63;;
2177;SDS011;1095;50.992;6.798;2023-06-14T09:42:23;6.45;;;3.83;;
2177;SDS011;1095;50.992;6.798;2023-06-14T09:44:51;7.95;;;4.38;;
2177;SDS011;1095;50.992;6.798;2023-06-14T09:47:19;8.52;;;4.20;;
2177;SDS011;1095;50.992;6.798;2023-06-14T09:49:46;5.63;;;3.97;;
2177;SDS011;1095;50.992;6.798;2023-06-14T09:52:15;6.38;;;3.90;;
2177;SDS011;1095;50.992;6.798;2023-06-14T09:54:43;5.13;;;3.80;;
2177;SDS011;1095;50.992;6.798;2023-06-14T09:57:11;4.97;;;3.90;;
2177;SDS011;1095;50.992;6.798;2023-06-14T09:59:40;5.15;;;3.90;;
2177;SDS011;1095;50.992;6.798;2023-06-14T10:02:10;8.32;;;3.90;;
2177;SDS011;1095;50.992;6.798;2023-06-14T10:04:41;6.10;;;3.95;;
2177;SDS011;1095;50.992;6.798;2023-06-14T10:07:13;7.75;;;3.92;;
2177;SDS011;1095;50.992;6.798;2023-06-14T10:09:44;7.00;;;3.70;;
2177;SDS011;1095;50.992;6.798;2023-06-14T10:12:15;9.77;;;3.85;;
2177;SDS011;1095;50.992;6.798;2023-06-14T10:14:46;6.03;;;3.88;;
2177;SDS011;1095;50.992;6.798;2023-06-14T10:17:19;5.78;;;4.18;;
2177;SDS011;1095;50.992;6.798;2023-06-14T10:19:54;4.75;;;4.00;;
2177;SDS011;1095;50.992;6.798;2023-06-14T10:24:55;7.03;;;3.90;;
2177;SDS011;1095;50.992;6.798;2023-06-14T10:27:24;6.05;;;3.80;;
2177;SDS011;1095;50.992;6.798;2023-06-14T10:30:07;6.53;;;3.80;;
2177;SDS011;1095;50.992;6.798;2023-06-14T10:32:35;4.32;;;3.58;;
2177;SDS011;1095;50.992;6.798;2023-06-14T10:35:21;5.95;;;3.70;;
2177;SDS011;1095;50.992;6.798;2023-06-14T10:37:49;4.50;;;3.78;;
2177;SDS011;1095;50.992;6.798;2023-06-14T10:40:29;6.72;;;4.07;;
2177;SDS011;1095;50.992;6.798;2023-06-14T10:42:56;5.00;;;3.72;;
2177;SDS011;1095;50.992;6.798;2023-06-14T10:45:23;7.25;;;4.00;;
2177;SDS011;1095;50.992;6.798;2023-06-14T10:47:50;8.40;;;4.18;;
2177;SDS011;1095;50.992;6.798;2023-06-14T10:50:17;7.68;;;4.57;;
2177;SDS011;1095;50.992;6.798;2023-06-14T10:52:57;6.40;;;4.32;;
2177;SDS011;1095;50.992;6.798;2023-06-14T10:55:23;6.13;;;4.15;;
2177;SDS011;1095;50.992;6.798;2023-06-14T10:57:53;8.90;;;3.83;;
2177;SDS011;1095;50.992;6.798;2023-06-14T11:00:23;6.80;;;4.40;;
2177;SDS011;1095;50.992;6.798;2023-06-14T11:02:55;5.03;;;4.03;;
2177;SDS011;1095;50.992;6.798;2023-06-14T11:05:50;5.75;;;3.80;;
2177;SDS011;1095;50.992;6.798;2023-06-14T11:11:20;5.10;;;4.32;;
2177;SDS011;1095;50.992;6.798;2023-06-14T11:13:49;9.88;;;4.30;;
2177;SDS011;1095;50.992;6.798;2023-06-14T11:16:17;6.88;;;4.38;;
2177;SDS011;1095;50.992;6.798;2023-06-14T11:18:45;11.65;;;4.63;;
2177;SDS011;1095;50.992;6.798;2023-06-14T11:21:15;5.68;;;4.30;;
2177;SDS011;1095;50.992;6.798;2023-06-14T11:23:53;7.40;;;4.23;;
2177;SDS011;1095;50.992;6.798;2023-06-14T11:26:24;5.88;;;4.53;;
2177;SDS011;1095;50.992;6.798;2023-06-14T11:28:54;8.50;;;4.27;;
2177;SDS011;1095;50.992;6.798;2023-06-14T11:31:23;5.32;;;4.28;;
2177;SDS011;1095;50.992;6.798;2023-06-14T11:33:49;8.00;;;4.15;;
2177;SDS011;1095;50.992;6.798;2023-06-14T11:36:16;6.35;;;4.10;;
2177;SDS011;1095;50.992;6.798;2023-06-14T11:38:43;5.10;;;4.47;;
2177;SDS011;1095;50.992;6.798;2023-06-14T11:41:11;7.97;;;4.63;;
2177;SDS011;1095;50.992;6.798;2023-06-14T11:43:38;5.97;;;4.40;;
2177;SDS011;1095;50.992;6.798;2023-06-14T11:46:11;7.25;;;4.13;;
2177;SDS011;1095;50.992;6.798;2023-06-14T11:48:40;7.72;;;4.10;;
2177;SDS011;1095;50.992;6.798;2023-06-14T11:51:10;6.63;;;4.15;;
2177;SDS011;1095;50.992;6.798;2023-06-14T11:53:37;4.60;;;3.85;;
2177;SDS011;1095;50.992;6.798;2023-06-14T11:56:04;8.30;;;4.18;;
2177;SDS011;1095;50.992;6.798;2023-06-14T11:58:32;5.25;;;4.20;;
2177;SDS011;1095;50.992;6.798;2023-06-14T12:00:59;4.82;;;3.95;;
2177;SDS011;1095;50.992;6.798;2023-06-14T12:03:27;5.65;;;3.83;;
2177;SDS011;1095;50.992;6.798;2023-06-14T12:06:04;8.75;;;4.20;;
2177;SDS011;1095;50.992;6.798;2023-06-14T12:08:32;6.18;;;4.15;;
2177;SDS011;1095;50.992;6.798;2023-06-14T12:11:04;6.50;;;4.03;;
2177;SDS011;1095;50.992;6.798;2023-06-14T12:13:30;6.28;;;3.90;;
2177;SDS011;1095;50.992;6.798;2023-06-14T12:15:59;4.20;;;3.70;;
2177;SDS011;1095;50.992;6.798;2023-06-14T12:18:33;6.60;;;4.00;;
2177;SDS011;1095;50.992;6.798;2023-06-14T12:21:00;5.80;;;3.90;;
2177;SDS011;1095;50.992;6.798;2023-06-14T12:23:38;4.50;;;3.72;;
2177;SDS011;1095;50.992;6.798;2023-06-14T12:26:05;6.88;;;3.80;;
2177;SDS011;1095;50.992;6.798;2023-06-14T12:28:34;6.43;;;4.00;;
2177;SDS011;1095;50.992;6.798;2023-06-14T12:31:02;6.55;;;4.20;;
2177;SDS011;1095;50.992;6.798;2023-06-14T12:33:31;9.55;;;4.00;;
2177;SDS011;1095;50.992;6.798;2023-06-14T12:35:58;6.45;;;3.63;;
2177;SDS011;1095;50.992;6.798;2023-06-14T12:38:24;5.53;;;3.83;;
2177;SDS011;1095;50.992;6.798;2023-06-14T12:40:51;6.00;;;3.55;;
2177;SDS011;1095;50.992;6.798;2023-06-14T12:43:18;7.40;;;3.60;;
2177;SDS011;1095;50.992;6.798;2023-06-14T12:45:46;4.45;;;3.53;;
2177;SDS011;1095;50.992;6.798;2023-06-14T12:48:13;4.10;;;3.40;;
2177;SDS011;1095;50.992;6.798;2023-06-14T12:50:40;4.35;;;3.38;;
2177;SDS011;1095;50.992;6.798;2023-06-14T12:53:07;4.72;;;3.17;;
2177;SDS011;1095;50.992;6.798;2023-06-14T12:55:34;3.50;;;3.20;;
2177;SDS011;1095;50.992;6.798;2023-06-14T12:58:01;5.85;;;3.40;;
2177;SDS011;1095;50.992;6.798;2023-06-14T13:00:28;3.85;;;3.35;;
2177;SDS011;1095;50.992;6.798;2023-06-14T13:02:57;4.43;;;3.50;;
2177;SDS011;1095;50.992;6.798;2023-06-14T13:05:24;4.85;;;3.50;;
2177;SDS011;1095;50.992;6.798;2023-06-14T13:07:51;4.72;;;3.30;;
2177;SDS011;1095;50.992;6.798;2023-06-14T13:10:18;4.07;;;3.20;;
2177;SDS011;1095;50.992;6.798;2023-06-14T13:12:48;4.07;;;3.20;;
2177;SDS011;1095;50.992;6.798;2023-06-14T13:15:18;3.80;;;3.33;;
2177;SDS011;1095;50.992;6.798;2023-06-14T13:20:39;7.13;;;3.60;;
2177;SDS011;1095;50.992;6.798;2023-06-14T13:25:59;3.67;;;3.30;;
2177;SDS011;1095;50.992;6.798;2023-06-14T13:28:30;3.72;;;3.13;;
2177;SDS011;1095;50.992;6.798;2023-06-14T13:31:11;3.75;;;3.13;;
2177;SDS011;1095;50.992;6.798;2023-06-14T13:34:19;8.45;;;3.25;;
2177;SDS011;1095;50.992;6.798;2023-06-14T13:36:55;3.88;;;3.38;;
2177;SDS011;1095;50.992;6.798;2023-06-14T13:39:34;4.07;;;3.50;;
2177;SDS011;1095;50.992;6.798;2023-06-14T13:42:17;4.30;;;3.38;;
2177;SDS011;1095;50.992;6.798;2023-06-14T13:44:47;7.50;;;3.45;;
2177;SDS011;1095;50.992;6.798;2023-06-14T13:47:17;7.03;;;3.45;;
2177;SDS011;1095;50.992;6.798;2023-06-14T13:49:45;4.95;;;3.20;;
2177;SDS011;1095;50.992;6.798;2023-06-14T13:52:12;7.53;;;3.42;;
2177;SDS011;1095;50.992;6.798;2023-06-14T13:54:42;5.07;;;3.60;;
2177;SDS011;1095;50.992;6.798;2023-06-14T13:57:09;3.35;;;3.05;;
2177;SDS011;1095;50.992;6.798;2023-06-14T13:59:39;4.93;;;3.40;;
2177;SDS011;1095;50.992;6.798;2023-06-14T14:02:05;4.25;;;3.45;;
2177;SDS011;1095;50.992;6.798;2023-06-14T14:04:33;4.35;;;3.15;;
2177;SDS011;1095;50.992;6.798;2023-06-14T14:07:02;5.90;;;3.30;;
2177;SDS011;1095;50.992;6.798;2023-06-14T14:09:33;6.43;;;3.60;;
2177;SDS011;1095;50.992;6.798;2023-06-14T14:12:02;7.38;;;3.38;;
2177;SDS011;1095;50.992;6.798;2023-06-14T14:14:31;7.95;;;3.33;;
2177;SDS011;1095;50.992;6.798;2023-06-14T14:16:58;5.93;;;3.53;;
2177;SDS011;1095;50.992;6.798;2023-06-14T14:19:25;5.45;;;3.45;;
2177;SDS011;1095;50.992;6.798;2023-06-14T14:21:52;5.82;;;3.92;;
2177;SDS011;1095;50.992;6.798;2023-06-14T14:24:31;4.70;;;3.70;;
2177;SDS011;1095;50.992;6.798;2023-06-14T14:26:58;5.03;;;3.60;;
2177;SDS011;1095;50.992;6.798;2023-06-14T14:29:25;4.38;;;3.67;;
2177;SDS011;1095;50.992;6.798;2023-06-14T14:31:54;6.53;;;3.72;;
2177;SDS011;1095;50.992;6.798;2023-06-14T14:34:21;4.20;;;3.80;;
2177;SDS011;1095;50.992;6.798;2023-06-14T14:36:48;7.55;;;3.78;;
2177;SDS011;1095;50.992;6.798;2023-06-14T14:39:15;4.55;;;4.07;;
2177;SDS011;1095;50.992;6.798;2023-06-14T14:41:43;4.60;;;3.97;;
2177;SDS011;1095;50.992;6.798;2023-06-14T14:44:09;6.93;;;4.18;;
2177;SDS011;1095;50.992;6.798;2023-06-14T14:46:36;6.32;;;3.55;;
2177;SDS011;1095;50.992;6.798;2023-06-14T14:49:02;6.05;;;4.00;;
2177;SDS011;1095;50.992;6.798;2023-06-14T14:51:29;4.88;;;3.97;;
2177;SDS011;1095;50.992;6.798;2023-06-14T14:53:56;4.75;;;4.25;;
2177;SDS011;1095;50.992;6.798;2023-06-14T14:56:22;4.97;;;3.97;;
2177;SDS011;1095;50.992;6.798;2023-06-14T14:58:52;6.03;;;3.85;;
2177;SDS011;1095;50.992;6.798;2023-06-14T15:01:18;5.75;;;3.90;;
2177;SDS011;1095;50.992;6.798;2023-06-14T15:03:45;7.20;;;3.90;;
2177;SDS011;1095;50.992;6.798;2023-06-14T15:06:12;7.15;;;3.78;;
2177;SDS011;1095;50.992;6.798;2023-06-14T15:08:39;8.05;;;3.92;;
2177;SDS011;1095;50.992;6.798;2023-06-14T15:11:05;6.13;;;3.90;;
2177;SDS011;1095;50.992;6.798;2023-06-14T15:13:32;11.23;;;4.00;;
2177;SDS011;1095;50.992;6.798;2023-06-14T15:16:00;7.47;;;4.00;;
2177;SDS011;1095;50.992;6.798;2023-06-14T15:18:27;4.78;;;4.00;;
2177;SDS011;1095;50.992;6.798;2023-06-14T15:20:54;7.65;;;3.95;;
2177;SDS011;1095;50.992;6.798;2023-06-14T15:23:20;4.28;;;3.80;;
2177;SDS011;1095;50.992;6.798;2023-06-14T15:25:47;6.22;;;4.10;;
2177;SDS011;1095;50.992;6.798;2023-06-14T15:28:19;7.43;;;4.13;;